createdAt,value
2023-02-07T00:00:16.279Z,1.20
2023-02-07T00:01:18.857Z,1.20
2023-02-07T00:02:14.047Z,1.00
2023-02-07T00:03:13.109Z,1.20
2023-02-07T00:04:13.162Z,1.50
2023-02-07T00:06:12.829Z,1.80
2023-02-07T00:07:23.930Z,1.60
2023-02-07T00:08:13.955Z,1.60
2023-02-07T00:09:12.911Z,1.60
2023-02-07T00:10:12.958Z,1.50
2023-02-07T00:11:12.934Z,1.40
2023-02-07T00:12:14.128Z,1.20
2023-02-07T00:13:13.141Z,1.10
2023-02-07T00:14:13.096Z,1.20
2023-02-07T00:15:13.067Z,1.30
2023-02-07T00:16:13.399Z,1.50
2023-02-07T00:17:13.409Z,1.70
2023-02-07T00:18:13.511Z,1.40
2023-02-07T00:19:18.762Z,1.50
2023-02-07T00:20:13.666Z,1.50
2023-02-07T00:21:14.262Z,1.70
2023-02-07T00:22:13.448Z,1.80
2023-02-07T00:23:13.450Z,1.70
2023-02-07T00:24:13.688Z,1.50
2023-02-07T00:25:13.618Z,1.40
2023-02-07T00:26:13.778Z,1.40
2023-02-07T00:27:13.685Z,1.50
2023-02-07T00:28:13.699Z,1.50
2023-02-07T00:29:13.721Z,1.60
2023-02-07T00:30:13.698Z,1.40
2023-02-07T00:31:13.970Z,1.20
2023-02-07T00:32:13.088Z,1.20
2023-02-07T00:33:13.125Z,1.30
2023-02-07T00:34:13.230Z,1.10
2023-02-07T00:35:13.286Z,1.10
2023-02-07T00:36:13.397Z,1.20
2023-02-07T00:37:13.552Z,1.30
2023-02-07T00:38:13.473Z,1.50
2023-02-07T00:39:13.855Z,1.60
2023-02-07T00:40:13.919Z,1.50
2023-02-07T00:41:12.860Z,1.30
2023-02-07T00:42:14.080Z,1.50
2023-02-07T00:43:21.474Z,1.50
2023-02-07T00:44:13.004Z,1.20
2023-02-07T00:45:13.140Z,1.30
2023-02-07T00:46:13.627Z,1.40
2023-02-07T00:47:14.011Z,1.40
2023-02-07T00:48:18.353Z,1.50
2023-02-07T00:49:13.338Z,1.40
2023-02-07T00:50:13.217Z,1.40
2023-02-07T00:51:13.382Z,1.30
2023-02-07T00:52:13.270Z,1.40
2023-02-07T00:53:13.342Z,1.40
2023-02-07T00:54:18.661Z,1.40
2023-02-07T00:55:13.817Z,1.40
2023-02-07T00:56:13.760Z,1.40
2023-02-07T00:57:13.888Z,1.40
2023-02-07T00:58:12.989Z,1.30
2023-02-07T00:59:12.909Z,1.30
2023-02-07T01:00:12.911Z,1.20
2023-02-07T01:01:13.069Z,1.30
2023-02-07T01:02:13.088Z,1.30
2023-02-07T01:03:13.092Z,1.20
2023-02-07T01:04:13.025Z,1.30
2023-02-07T01:05:13.074Z,1.50
2023-02-07T01:06:18.300Z,1.40
2023-02-07T01:07:13.660Z,1.40
2023-02-07T01:08:13.845Z,1.30
2023-02-07T01:09:13.676Z,1.30
2023-02-07T01:10:13.605Z,0.90
2023-02-07T01:11:13.558Z,1.10
2023-02-07T01:12:13.488Z,1.30
2023-02-07T01:13:13.609Z,1.30
2023-02-07T01:14:13.659Z,1.30
2023-02-07T01:15:13.607Z,1.20
2023-02-07T01:16:13.836Z,1.10
2023-02-07T01:17:14.614Z,1.20
2023-02-07T01:18:13.608Z,1.10
2023-02-07T01:19:15.058Z,1.10
2023-02-07T01:20:13.066Z,1.10
2023-02-07T01:21:13.294Z,1.20
2023-02-07T01:22:13.194Z,1.10
2023-02-07T01:23:13.034Z,1.20
2023-02-07T01:24:12.861Z,1.20
2023-02-07T01:25:13.790Z,1.20
2023-02-07T01:26:13.893Z,1.20
2023-02-07T01:27:13.847Z,1.10
2023-02-07T01:28:13.950Z,1.10
2023-02-07T01:29:12.888Z,0.80
2023-02-07T01:30:13.847Z,1.00
2023-02-07T01:31:14.049Z,1.00
2023-02-07T01:32:13.014Z,1.00
2023-02-07T01:33:12.943Z,1.00
2023-02-07T01:34:12.888Z,1.00
2023-02-07T01:35:13.974Z,1.10
2023-02-07T01:36:12.977Z,1.20
2023-02-07T01:37:12.980Z,1.20
2023-02-07T01:38:12.969Z,1.10
2023-02-07T01:39:13.147Z,1.00
2023-02-07T01:40:13.254Z,1.00
2023-02-07T01:41:13.464Z,0.90
2023-02-07T01:42:13.715Z,0.70
2023-02-07T01:43:13.951Z,0.80
2023-02-07T01:44:12.909Z,1.00
2023-02-07T01:45:18.680Z,1.20
2023-02-07T01:46:13.698Z,1.20
2023-02-07T01:47:14.849Z,1.10
2023-02-07T01:48:14.150Z,1.00
2023-02-07T01:49:13.242Z,0.90
2023-02-07T01:50:13.107Z,1.00
2023-02-07T01:51:12.969Z,1.20
2023-02-07T01:52:13.134Z,1.10
2023-02-07T01:53:13.106Z,1.00
2023-02-07T01:54:13.067Z,0.90
2023-02-07T01:55:12.978Z,1.00
2023-02-07T01:56:20.138Z,1.20
2023-02-07T01:57:13.033Z,1.20
2023-02-07T01:58:13.278Z,1.20
2023-02-07T01:59:13.247Z,1.10
2023-02-07T02:00:13.303Z,1.00
2023-02-07T02:01:13.212Z,0.90
2023-02-07T02:03:13.031Z,0.90
2023-02-07T02:04:12.939Z,1.00
2023-02-07T02:05:12.914Z,1.10
2023-02-07T02:06:13.055Z,1.20
2023-02-07T02:07:12.974Z,1.10
2023-02-07T02:08:12.917Z,1.00
2023-02-07T02:09:13.364Z,0.90
2023-02-07T02:10:13.547Z,1.00
2023-02-07T02:11:13.486Z,0.90
2023-02-07T02:12:14.622Z,1.00
2023-02-07T02:13:13.613Z,0.90
2023-02-07T02:14:18.818Z,0.80
2023-02-07T02:15:13.715Z,0.70
2023-02-07T02:16:20.073Z,0.70
2023-02-07T02:17:13.113Z,0.80
2023-02-07T02:18:13.040Z,0.90
2023-02-07T02:19:12.947Z,0.80
2023-02-07T02:20:12.826Z,0.70
2023-02-07T02:21:13.838Z,0.70
2023-02-07T02:22:14.083Z,0.60
2023-02-07T02:23:13.255Z,0.70
2023-02-07T02:24:13.280Z,0.60
2023-02-07T02:25:13.168Z,0.80
2023-02-07T02:26:13.107Z,0.80
2023-02-07T02:27:13.169Z,0.70
2023-02-07T02:28:13.103Z,0.70
2023-02-07T02:29:13.216Z,0.80
2023-02-07T02:30:13.183Z,0.80
2023-02-07T02:31:18.553Z,1.00
2023-02-07T02:32:13.482Z,1.10
2023-02-07T02:33:13.383Z,1.00
2023-02-07T02:34:13.427Z,1.10
2023-02-07T02:35:14.563Z,1.00
2023-02-07T02:36:13.526Z,1.00
2023-02-07T02:37:13.822Z,0.50
2023-02-07T02:38:13.827Z,0.70
2023-02-07T02:39:14.174Z,0.70
2023-02-07T02:40:13.199Z,0.60
2023-02-07T02:41:13.285Z,0.50
2023-02-07T02:42:13.157Z,0.40
2023-02-07T02:43:13.476Z,0.60
2023-02-07T02:44:13.562Z,0.70
2023-02-07T02:45:13.598Z,0.30
2023-02-07T02:46:13.680Z,0.30
2023-02-07T02:47:13.786Z,0.40
2023-02-07T02:48:13.778Z,0.50
2023-02-07T02:49:13.998Z,0.40
2023-02-07T02:50:13.091Z,0.50
2023-02-07T02:51:13.267Z,0.60
2023-02-07T02:52:13.549Z,0.60
2023-02-07T02:53:13.899Z,0.40
2023-02-07T02:54:13.313Z,0.60
2023-02-07T02:55:14.425Z,0.40
2023-02-07T02:56:13.435Z,0.40
2023-02-07T02:57:13.428Z,0.50
2023-02-07T02:58:13.512Z,0.60
2023-02-07T02:59:13.537Z,0.60
2023-02-07T03:00:18.639Z,0.50
2023-02-07T03:01:13.605Z,0.50
2023-02-07T03:03:13.796Z,0.60
2023-02-07T03:04:13.683Z,0.60
2023-02-07T03:05:13.734Z,0.30
2023-02-07T03:06:13.624Z,0.40
2023-02-07T03:07:13.568Z,0.60
2023-02-07T03:08:13.708Z,0.60
2023-02-07T03:09:13.718Z,0.70
2023-02-07T03:10:14.914Z,0.50
2023-02-07T03:11:12.811Z,0.40
2023-02-07T03:12:14.996Z,0.50
2023-02-07T03:13:13.021Z,0.60
2023-02-07T03:14:13.077Z,0.60
2023-02-07T03:15:12.972Z,0.70
2023-02-07T03:16:13.039Z,0.50
2023-02-07T03:17:13.056Z,0.40
2023-02-07T03:18:12.972Z,0.50
2023-02-07T03:19:13.098Z,0.50
2023-02-07T03:20:18.254Z,0.60
2023-02-07T03:21:13.538Z,0.30
2023-02-07T03:22:13.700Z,0.30
2023-02-07T03:23:13.940Z,0.30
2023-02-07T03:24:12.989Z,0.30
2023-02-07T03:25:12.821Z,0.30
2023-02-07T03:26:13.732Z,0.30
2023-02-07T03:27:14.030Z,0.20
2023-02-07T03:28:13.191Z,0.20
2023-02-07T03:29:13.413Z,0.20
2023-02-07T03:30:13.294Z,0.10
2023-02-07T03:31:13.251Z,0.10
2023-02-07T03:32:13.524Z,0.00
2023-02-07T03:33:13.970Z,0.10
2023-02-07T03:34:13.355Z,-0.00
2023-02-07T03:35:13.436Z,-0.10
2023-02-07T03:36:13.675Z,-0.10
2023-02-07T03:37:14.423Z,-0.10
2023-02-07T03:38:13.299Z,-0.10
2023-02-07T03:39:13.203Z,-0.10
2023-02-07T03:40:13.142Z,-0.10
2023-02-07T03:41:13.055Z,-0.20
2023-02-07T03:42:13.507Z,-0.10
2023-02-07T03:43:13.515Z,-0.10
2023-02-07T03:44:13.564Z,-0.00
2023-02-07T03:45:13.473Z,0.10
2023-02-07T03:46:13.584Z,0.20
2023-02-07T03:47:13.590Z,0.20
2023-02-07T03:48:13.989Z,0.20
2023-02-07T03:49:13.347Z,0.20
2023-02-07T03:50:13.255Z,0.10
2023-02-07T03:51:13.358Z,-0.00
2023-02-07T03:52:13.277Z,0.20
2023-02-07T03:53:13.173Z,0.20
2023-02-07T03:54:13.113Z,0.20
2023-02-07T03:55:13.166Z,0.40
2023-02-07T03:56:13.150Z,0.40
2023-02-07T03:57:13.287Z,0.30
2023-02-07T03:58:13.252Z,0.30
2023-02-07T03:59:13.206Z,0.30
2023-02-07T04:00:13.577Z,0.20
2023-02-07T04:01:13.835Z,0.10
2023-02-07T04:02:14.192Z,0.20
2023-02-07T04:03:13.132Z,0.10
2023-02-07T04:04:13.346Z,0.20
2023-02-07T04:05:13.410Z,0.20
2023-02-07T04:06:13.689Z,0.00
2023-02-07T04:07:14.150Z,-0.10
2023-02-07T04:08:13.597Z,0.00
2023-02-07T04:09:14.015Z,0.10
2023-02-07T04:10:13.034Z,0.10
2023-02-07T04:11:13.186Z,0.30
2023-02-07T04:12:13.249Z,0.30
2023-02-07T04:13:13.264Z,0.10
2023-02-07T04:14:13.337Z,0.20
2023-02-07T04:15:13.350Z,0.30
2023-02-07T04:16:13.352Z,0.20
2023-02-07T04:17:13.176Z,0.20
2023-02-07T04:18:13.386Z,0.20
2023-02-07T04:19:13.262Z,0.20
2023-02-07T04:20:13.362Z,0.30
2023-02-07T04:21:13.326Z,0.30
2023-02-07T04:22:13.662Z,0.30
2023-02-07T04:23:13.691Z,0.30
2023-02-07T04:24:13.831Z,0.20
2023-02-07T04:25:13.734Z,0.20
2023-02-07T04:26:13.956Z,0.20
2023-02-07T04:27:12.829Z,0.20
2023-02-07T04:28:14.108Z,0.20
2023-02-07T04:29:13.175Z,0.20
2023-02-07T04:30:13.235Z,0.20
2023-02-07T04:31:13.462Z,0.10
2023-02-07T04:32:13.535Z,0.20
2023-02-07T04:33:13.463Z,0.20
2023-02-07T04:34:13.476Z,0.20
2023-02-07T04:35:13.405Z,0.20
2023-02-07T04:36:13.478Z,0.10
2023-02-07T04:37:13.438Z,0.20
2023-02-07T04:38:13.388Z,-0.00
2023-02-07T04:39:13.390Z,0.00
2023-02-07T04:40:13.290Z,0.00
2023-02-07T04:41:13.297Z,0.10
2023-02-07T04:42:13.541Z,-0.00
2023-02-07T04:43:13.755Z,-0.00
2023-02-07T04:44:13.935Z,-0.10
2023-02-07T04:45:12.862Z,-0.10
2023-02-07T04:46:13.105Z,-0.20
2023-02-07T04:47:13.084Z,-0.30
2023-02-07T04:48:13.127Z,-0.20
2023-02-07T04:49:13.084Z,-0.10
2023-02-07T04:50:13.560Z,-0.10
2023-02-07T04:51:13.709Z,-0.20
2023-02-07T04:52:13.670Z,-0.10
2023-02-07T04:53:13.666Z,-0.20
2023-02-07T04:54:13.682Z,-0.20
2023-02-07T04:55:13.838Z,-0.20
2023-02-07T04:56:13.867Z,-0.30
2023-02-07T04:57:13.775Z,-0.20
2023-02-07T04:58:13.668Z,-0.10
2023-02-07T04:59:13.601Z,-0.00
2023-02-07T05:00:13.792Z,-0.00
2023-02-07T05:01:13.897Z,-0.10
2023-02-07T05:02:12.956Z,-0.10
2023-02-07T05:03:12.887Z,-0.10
2023-02-07T05:04:13.979Z,-0.20
2023-02-07T05:05:12.990Z,-0.20
2023-02-07T05:06:12.948Z,-0.10
2023-02-07T05:07:13.025Z,-0.30
2023-02-07T05:08:13.349Z,-0.20
2023-02-07T05:09:13.349Z,-0.20
2023-02-07T05:10:13.271Z,-0.10
2023-02-07T05:11:13.291Z,-0.20
2023-02-07T05:12:13.336Z,-0.20
2023-02-07T05:13:13.210Z,-0.30
2023-02-07T05:14:13.145Z,-0.40
2023-02-07T05:15:13.254Z,-0.40
2023-02-07T05:16:13.211Z,-0.40
2023-02-07T05:17:13.285Z,-0.50
2023-02-07T05:18:18.529Z,-0.50
2023-02-07T05:19:13.427Z,-0.40
2023-02-07T05:20:13.241Z,-0.40
2023-02-07T05:21:13.247Z,-0.50
2023-02-07T05:22:13.226Z,-0.40
2023-02-07T05:23:13.330Z,-0.40
2023-02-07T05:24:13.590Z,-0.40
2023-02-07T05:25:40.301Z,-0.30
2023-02-07T05:26:13.584Z,-0.30
2023-02-07T05:27:13.827Z,-0.40
2023-02-07T05:28:13.694Z,-0.30
2023-02-07T05:29:13.625Z,-0.20
2023-02-07T05:30:13.576Z,-0.20
2023-02-07T05:31:13.610Z,-0.20
2023-02-07T05:32:13.721Z,-0.50
2023-02-07T05:33:13.706Z,-0.50
2023-02-07T05:34:37.924Z,-0.50
2023-02-07T05:35:12.845Z,-0.60
2023-02-07T05:36:13.686Z,-0.60
2023-02-07T05:37:13.723Z,-0.60
2023-02-07T05:38:13.660Z,-0.70
2023-02-07T05:39:13.610Z,-0.90
2023-02-07T05:40:13.650Z,-0.80
2023-02-07T05:42:13.823Z,-0.80
2023-02-07T05:43:13.799Z,-0.70
2023-02-07T05:44:15.033Z,-0.80
2023-02-07T05:45:18.253Z,-0.70
2023-02-07T05:46:13.221Z,-0.70
2023-02-07T05:48:13.036Z,-0.70
2023-02-07T05:49:13.211Z,-0.60
2023-02-07T05:50:49.789Z,-0.60
2023-02-07T05:51:13.930Z,-0.60
2023-02-07T05:52:12.959Z,-0.70
2023-02-07T05:53:13.253Z,-0.60
2023-02-07T05:54:13.591Z,-0.50
2023-02-07T05:55:13.917Z,-0.50
2023-02-07T05:56:13.122Z,-0.50
2023-02-07T05:57:12.988Z,-0.50
2023-02-07T05:58:13.571Z,-0.50
2023-02-07T05:59:14.171Z,-0.50
2023-02-07T06:00:13.093Z,-0.50
2023-02-07T06:01:13.083Z,-0.50
2023-02-07T06:02:13.082Z,-0.50
2023-02-07T06:03:13.344Z,-0.60
2023-02-07T06:04:13.873Z,-0.60
2023-02-07T06:05:14.050Z,-0.50
2023-02-07T06:06:13.050Z,-0.30
2023-02-07T06:07:13.025Z,-0.30
2023-02-07T06:08:12.917Z,-0.20
2023-02-07T06:09:13.321Z,0.00
2023-02-07T06:10:13.365Z,0.00
2023-02-07T06:11:13.559Z,-0.10
2023-02-07T06:12:14.617Z,-0.30
2023-02-07T06:13:13.736Z,-0.40
2023-02-07T06:14:13.915Z,-0.50
2023-02-07T06:15:12.897Z,-0.40
2023-02-07T06:16:12.886Z,-0.40
2023-02-07T06:17:13.133Z,-0.30
2023-02-07T06:18:13.366Z,-0.30
2023-02-07T06:19:13.708Z,-0.20
2023-02-07T06:20:13.841Z,-0.20
2023-02-07T06:21:14.465Z,-0.20
2023-02-07T06:22:13.398Z,-0.30
2023-02-07T06:23:13.678Z,-0.30
2023-02-07T06:25:32.586Z,-0.30
2023-02-07T06:26:13.668Z,-0.30
2023-02-07T06:27:14.000Z,-0.30
2023-02-07T06:28:12.984Z,-0.40
2023-02-07T06:29:12.946Z,-0.20
2023-02-07T06:30:12.954Z,-0.10
2023-02-07T06:31:13.283Z,-0.10
2023-02-07T06:32:13.583Z,-0.20
2023-02-07T06:33:14.390Z,-0.20
2023-02-07T06:34:13.559Z,-0.20
2023-02-07T06:35:13.918Z,-0.20
2023-02-07T06:36:13.150Z,-0.10
2023-02-07T06:37:18.137Z,-0.30
2023-02-07T06:38:13.107Z,-0.30
2023-02-07T06:39:13.402Z,-0.40
2023-02-07T06:40:13.434Z,-0.20
2023-02-07T06:41:13.503Z,-0.00
2023-02-07T06:42:13.676Z,0.00
2023-02-07T06:43:13.958Z,0.20
2023-02-07T06:44:13.151Z,0.30
2023-02-07T06:45:13.320Z,0.50
2023-02-07T06:46:13.527Z,0.50
2023-02-07T06:47:13.823Z,0.20
2023-02-07T06:48:14.142Z,-0.10
2023-02-07T06:49:13.188Z,-0.10
2023-02-07T06:50:13.335Z,-0.10
2023-02-07T06:51:13.412Z,0.00
2023-02-07T06:52:13.754Z,-0.10
2023-02-07T06:53:13.808Z,-0.00
2023-02-07T06:54:14.002Z,-0.00
2023-02-07T06:55:13.254Z,0.20
2023-02-07T06:56:13.350Z,0.30
2023-02-07T06:57:13.584Z,0.70
2023-02-07T06:58:13.966Z,0.80
2023-02-07T06:59:13.290Z,0.90
2023-02-07T07:00:13.179Z,0.70
2023-02-07T07:01:13.054Z,0.90
2023-02-07T07:02:13.258Z,0.90
2023-02-07T07:03:13.609Z,0.80
2023-02-07T07:04:13.536Z,0.60
2023-02-07T07:05:16.171Z,0.10
2023-02-07T07:06:13.461Z,-0.00
2023-02-07T07:07:13.387Z,-0.10
2023-02-07T07:08:13.523Z,-0.10
2023-02-07T07:09:13.416Z,-0.00
2023-02-07T07:10:13.690Z,0.00
2023-02-07T07:11:14.064Z,0.10
2023-02-07T07:12:13.077Z,0.10
2023-02-07T07:13:13.233Z,0.20
2023-02-07T07:14:13.210Z,0.20
2023-02-07T07:15:13.559Z,0.20
2023-02-07T07:16:13.798Z,0.20
2023-02-07T07:17:13.910Z,0.10
2023-02-07T07:18:13.180Z,0.10
2023-02-07T07:19:13.325Z,0.00
2023-02-07T07:20:13.372Z,0.00
2023-02-07T07:21:13.853Z,0.10
2023-02-07T07:22:14.388Z,0.10
2023-02-07T07:23:13.329Z,0.10
2023-02-07T07:24:13.406Z,0.10
2023-02-07T07:25:13.532Z,-0.10
2023-02-07T07:26:13.638Z,-0.10
2023-02-07T07:27:14.366Z,-0.00
2023-02-07T07:28:13.249Z,-0.00
2023-02-07T07:29:13.591Z,-0.00
2023-02-07T07:30:13.429Z,-0.00
2023-02-07T07:31:18.612Z,-0.10
2023-02-07T07:32:22.430Z,0.10
2023-02-07T07:33:13.272Z,0.10
2023-02-07T07:34:13.456Z,0.20
2023-02-07T07:35:13.314Z,0.20
2023-02-07T07:36:13.273Z,0.20
2023-02-07T07:37:13.196Z,0.10
2023-02-07T07:38:13.275Z,0.20
2023-02-07T07:39:13.643Z,0.20
2023-02-07T07:40:13.641Z,0.20
2023-02-07T07:41:13.627Z,0.20
2023-02-07T07:42:13.583Z,0.20
2023-02-07T07:43:13.563Z,0.00
2023-02-07T07:44:13.543Z,0.20
2023-02-07T07:45:13.755Z,0.20
2023-02-07T07:46:14.890Z,0.20
2023-02-07T07:47:13.293Z,0.30
2023-02-07T07:48:13.795Z,0.20
2023-02-07T07:49:13.733Z,0.20
2023-02-07T07:50:13.784Z,0.20
2023-02-07T07:51:14.271Z,0.20
2023-02-07T07:52:13.249Z,0.20
2023-02-07T07:53:13.526Z,0.20
2023-02-07T07:54:13.497Z,0.10
2023-02-07T07:55:13.394Z,0.20
2023-02-07T07:56:13.511Z,0.20
2023-02-07T07:57:14.577Z,0.30
2023-02-07T07:58:13.573Z,0.40
2023-02-07T07:59:23.708Z,0.60
2023-02-07T08:00:13.175Z,0.70
2023-02-07T08:01:13.351Z,0.60
2023-02-07T08:02:13.522Z,0.50
2023-02-07T08:03:18.746Z,0.60
2023-02-07T08:04:14.137Z,0.50
2023-02-07T08:05:13.876Z,0.40
2023-02-07T08:06:13.129Z,0.50
2023-02-07T08:07:13.604Z,0.60
2023-02-07T08:08:13.666Z,0.60
2023-02-07T08:09:13.616Z,0.60
2023-02-07T08:10:14.175Z,0.60
2023-02-07T08:11:13.179Z,0.70
2023-02-07T08:12:13.240Z,0.60
2023-02-07T08:13:13.601Z,0.70
2023-02-07T08:14:13.729Z,0.40
2023-02-07T08:15:14.116Z,0.30
2023-02-07T08:16:13.257Z,0.10
2023-02-07T08:17:13.219Z,0.10
2023-02-07T08:18:13.637Z,0.10
2023-02-07T08:19:13.727Z,0.60
2023-02-07T08:20:13.719Z,0.80
2023-02-07T08:21:13.821Z,0.80
2023-02-07T08:22:13.936Z,0.70
2023-02-07T08:23:13.144Z,0.90
2023-02-07T08:24:13.098Z,0.90
2023-02-07T08:25:12.992Z,1.00
2023-02-07T08:26:13.082Z,0.90
2023-02-07T08:27:13.336Z,0.90
2023-02-07T08:28:13.583Z,1.00
2023-02-07T08:29:13.736Z,1.00
2023-02-07T08:30:13.622Z,0.90
2023-02-07T08:31:13.694Z,1.00
2023-02-07T08:32:14.546Z,1.10
2023-02-07T08:33:13.604Z,1.20
2023-02-07T08:34:13.883Z,1.10
2023-02-07T08:35:14.105Z,1.20
2023-02-07T08:36:13.432Z,1.00
2023-02-07T08:37:13.688Z,1.10
2023-02-07T08:38:13.998Z,1.20
2023-02-07T08:39:12.956Z,0.80
2023-02-07T08:40:12.953Z,0.90
2023-02-07T08:41:13.081Z,1.20
2023-02-07T08:42:13.497Z,1.40
2023-02-07T08:43:13.354Z,1.30
2023-02-07T08:44:13.561Z,1.20
2023-02-07T08:45:13.589Z,1.50
2023-02-07T08:46:14.139Z,1.50
2023-02-07T08:47:13.458Z,1.40
2023-02-07T08:48:13.386Z,1.50
2023-02-07T08:49:13.440Z,1.30
2023-02-07T08:50:13.326Z,1.50
2023-02-07T08:53:13.115Z,1.60
2023-02-07T08:54:13.432Z,1.40
2023-02-07T08:55:13.340Z,1.60
2023-02-07T08:56:13.851Z,1.70
2023-02-07T08:57:15.206Z,1.80
2023-02-07T08:58:13.146Z,1.80
2023-02-07T08:59:13.201Z,1.60
2023-02-07T09:00:13.202Z,1.60
2023-02-07T09:01:13.294Z,1.30
2023-02-07T09:02:13.489Z,1.50
2023-02-07T09:03:14.447Z,1.60
2023-02-07T09:04:14.632Z,1.60
2023-02-07T09:05:13.860Z,1.60
2023-02-07T09:06:14.054Z,1.70
2023-02-07T09:07:13.308Z,1.90
2023-02-07T09:08:14.029Z,1.90
2023-02-07T09:09:13.122Z,2.00
2023-02-07T09:10:13.405Z,2.00
2023-02-07T09:11:18.423Z,1.90
2023-02-07T09:12:14.016Z,2.10
2023-02-07T09:13:13.173Z,1.90
2023-02-07T09:14:13.507Z,2.00
2023-02-07T09:15:13.770Z,2.20
2023-02-07T09:16:13.891Z,2.20
2023-02-07T09:17:12.837Z,2.40
2023-02-07T09:18:14.162Z,2.20
2023-02-07T09:19:13.160Z,2.40
2023-02-07T09:20:13.170Z,2.50
2023-02-07T09:21:13.502Z,2.60
2023-02-07T09:22:13.680Z,2.40
2023-02-07T09:23:13.720Z,2.50
2023-02-07T09:24:13.613Z,2.50
2023-02-07T09:25:13.554Z,2.40
2023-02-07T09:26:13.578Z,2.50
2023-02-07T09:27:13.568Z,2.80
2023-02-07T09:28:13.542Z,2.90
2023-02-07T09:29:13.949Z,2.70
2023-02-07T09:30:13.131Z,2.70
2023-02-07T09:31:13.384Z,2.60
2023-02-07T09:32:18.484Z,2.60
2023-02-07T09:33:13.665Z,2.70
2023-02-07T09:34:13.616Z,2.70
2023-02-07T09:35:13.804Z,2.50
2023-02-07T09:36:13.859Z,2.60
2023-02-07T09:37:14.190Z,3.00
2023-02-07T09:38:13.370Z,3.10
2023-02-07T09:39:13.541Z,2.80
2023-02-07T09:40:13.678Z,2.60
2023-02-07T09:41:13.576Z,2.80
2023-02-07T09:42:13.419Z,3.00
2023-02-07T09:43:13.861Z,3.10
2023-02-07T09:44:13.324Z,3.30
2023-02-07T09:45:13.592Z,3.40
2023-02-07T09:46:13.587Z,3.40
2023-02-07T09:47:13.535Z,3.20
2023-02-07T09:48:13.525Z,3.20
2023-02-07T09:49:13.648Z,3.00
2023-02-07T09:50:13.600Z,2.80
2023-02-07T09:51:14.791Z,3.20
2023-02-07T09:52:13.695Z,3.50
2023-02-07T09:53:15.669Z,3.50
2023-02-07T09:54:13.673Z,3.10
2023-02-07T09:55:13.726Z,3.30
2023-02-07T09:56:13.843Z,3.50
2023-02-07T09:57:14.220Z,3.70
2023-02-07T09:58:13.120Z,3.90
2023-02-07T09:59:13.168Z,3.60
2023-02-07T10:00:13.143Z,3.30
2023-02-07T10:01:13.133Z,3.20
2023-02-07T10:02:13.035Z,3.90
2023-02-07T10:03:13.034Z,4.80
2023-02-07T10:04:12.984Z,5.30
2023-02-07T10:05:13.077Z,5.50
2023-02-07T10:06:18.923Z,6.00
2023-02-07T10:07:13.816Z,6.40
2023-02-07T10:08:13.729Z,7.20
2023-02-07T10:09:13.942Z,6.70
2023-02-07T10:10:13.540Z,7.10
2023-02-07T10:11:13.497Z,7.60
2023-02-07T10:12:13.531Z,7.70
2023-02-07T10:13:13.528Z,8.10
2023-02-07T10:14:13.820Z,8.20
2023-02-07T10:15:13.751Z,8.90
2023-02-07T10:16:13.921Z,9.40
2023-02-07T10:17:22.191Z,9.00
2023-02-07T10:18:13.676Z,8.30
2023-02-07T10:19:13.626Z,8.30
2023-02-07T10:20:13.529Z,7.40
2023-02-07T10:21:13.695Z,7.90
2023-02-07T10:22:13.887Z,7.80
2023-02-07T10:23:12.852Z,7.30
2023-02-07T10:24:13.851Z,7.70
2023-02-07T10:25:13.951Z,9.00
2023-02-07T10:26:12.851Z,8.20
2023-02-07T10:27:13.754Z,8.50
2023-02-07T10:28:13.910Z,9.40
2023-02-07T10:29:13.190Z,8.90
2023-02-07T10:30:13.094Z,9.60
2023-02-07T10:31:13.191Z,10.20
2023-02-07T10:32:13.290Z,10.40
2023-02-07T10:33:13.362Z,10.70
2023-02-07T10:34:13.219Z,9.60
2023-02-07T10:35:13.412Z,10.60
2023-02-07T10:36:13.663Z,10.70
2023-02-07T10:37:13.842Z,10.70
2023-02-07T10:38:13.824Z,11.10
2023-02-07T10:39:13.772Z,10.70
2023-02-07T10:40:13.962Z,10.60
2023-02-07T10:41:12.877Z,9.40
2023-02-07T10:42:13.842Z,8.40
2023-02-07T10:43:14.248Z,8.40
2023-02-07T10:44:13.287Z,9.70
2023-02-07T10:45:13.314Z,10.30
2023-02-07T10:46:13.323Z,10.70
2023-02-07T10:47:13.374Z,11.10
2023-02-07T10:48:13.652Z,11.40
2023-02-07T10:49:13.784Z,11.20
2023-02-07T10:50:16.085Z,10.60
2023-02-07T10:51:13.594Z,11.20
2023-02-07T10:52:13.891Z,11.50
2023-02-07T10:53:12.843Z,11.40
2023-02-07T10:54:13.985Z,11.60
2023-02-07T10:55:13.168Z,11.90
2023-02-07T10:56:13.108Z,11.70
2023-02-07T10:57:13.077Z,11.90
2023-02-07T10:58:22.427Z,12.00
2023-02-07T10:59:13.454Z,12.20
2023-02-07T11:00:13.286Z,12.20
2023-02-07T11:01:13.222Z,10.10
2023-02-07T11:02:13.308Z,10.10
2023-02-07T11:03:18.790Z,10.90
2023-02-07T11:04:13.722Z,11.30
2023-02-07T11:05:13.723Z,12.10
2023-02-07T11:06:13.860Z,12.50
2023-02-07T11:07:14.033Z,12.30
2023-02-07T11:08:13.067Z,12.10
2023-02-07T11:10:12.911Z,11.30
2023-02-07T11:11:12.710Z,11.20
2023-02-07T11:12:13.626Z,10.50
2023-02-07T11:13:13.588Z,9.90
2023-02-07T11:14:13.760Z,9.50
2023-02-07T11:15:13.645Z,8.90
2023-02-07T11:16:13.665Z,8.40
2023-02-07T11:17:13.864Z,9.50
2023-02-07T11:18:13.072Z,8.70
2023-02-07T11:19:13.107Z,8.30
2023-02-07T11:20:13.000Z,8.60
2023-02-07T11:21:13.229Z,9.00
2023-02-07T11:22:13.348Z,10.20
2023-02-07T11:23:13.363Z,9.80
2023-02-07T11:24:13.475Z,10.40
2023-02-07T11:25:18.437Z,9.60
2023-02-07T11:26:13.386Z,8.70
2023-02-07T11:27:13.541Z,7.80
2023-02-07T11:28:13.468Z,7.30
2023-02-07T11:29:13.697Z,6.90
2023-02-07T11:30:14.013Z,6.90
2023-02-07T11:31:13.328Z,7.30
2023-02-07T11:32:13.353Z,8.60
2023-02-07T11:33:13.279Z,9.20
2023-02-07T11:34:13.260Z,9.10
2023-02-07T11:35:13.236Z,9.60
2023-02-07T11:36:13.196Z,10.30
2023-02-07T11:37:13.190Z,8.10
2023-02-07T11:38:13.148Z,8.10
2023-02-07T11:39:13.098Z,8.30
2023-02-07T11:40:13.173Z,7.70
2023-02-07T11:41:13.791Z,9.10
2023-02-07T11:42:13.777Z,7.90
2023-02-07T11:43:13.733Z,8.60
2023-02-07T11:44:13.863Z,9.00
2023-02-07T11:45:14.093Z,8.20
2023-02-07T11:46:13.265Z,8.60
2023-02-07T11:47:13.182Z,9.90
2023-02-07T11:48:13.632Z,10.40
2023-02-07T11:49:13.469Z,11.20
2023-02-07T11:50:13.544Z,9.90
2023-02-07T11:51:13.487Z,9.30
2023-02-07T11:52:13.462Z,9.90
2023-02-07T11:53:13.498Z,10.00
2023-02-07T11:54:13.476Z,10.80
2023-02-07T11:55:13.587Z,8.90
2023-02-07T11:56:13.695Z,8.30
2023-02-07T11:57:13.683Z,7.90
2023-02-07T11:58:13.726Z,9.50
2023-02-07T11:59:13.687Z,10.20
2023-02-07T12:00:13.636Z,9.00
2023-02-07T12:01:13.823Z,10.60
2023-02-07T12:02:13.790Z,11.40
2023-02-07T12:03:13.633Z,11.20
2023-02-07T12:04:13.962Z,10.80
2023-02-07T12:05:13.033Z,10.50
2023-02-07T12:06:13.320Z,9.90
2023-02-07T12:07:13.437Z,10.40
2023-02-07T12:08:13.326Z,9.20
2023-02-07T12:09:13.166Z,9.80
2023-02-07T12:10:13.171Z,8.50
2023-02-07T12:11:13.043Z,8.80
2023-02-07T12:12:13.238Z,8.30
2023-02-07T12:13:13.154Z,8.90
2023-02-07T12:14:12.956Z,8.90
2023-02-07T12:15:12.907Z,9.40
2023-02-07T12:16:12.862Z,9.10
2023-02-07T12:17:13.774Z,9.20
2023-02-07T12:18:13.620Z,10.60
2023-02-07T12:19:13.507Z,11.50
2023-02-07T12:20:13.749Z,12.30
2023-02-07T12:21:13.856Z,12.60
2023-02-07T12:22:13.735Z,12.50
2023-02-07T12:23:40.445Z,11.30
2023-02-07T12:24:13.702Z,8.80
2023-02-07T12:25:13.627Z,10.10
2023-02-07T12:26:13.813Z,9.10
2023-02-07T12:27:13.101Z,8.60
2023-02-07T12:28:13.058Z,9.70
2023-02-07T12:29:13.986Z,10.90
2023-02-07T12:30:13.121Z,10.80
2023-02-07T12:31:13.391Z,11.90
2023-02-07T12:32:13.442Z,11.80
2023-02-07T12:33:14.672Z,12.20
2023-02-07T12:34:14.398Z,11.00
2023-02-07T12:35:13.450Z,11.40
2023-02-07T12:36:13.900Z,11.90
2023-02-07T12:37:13.041Z,12.90
2023-02-07T12:38:13.081Z,12.90
2023-02-07T12:39:13.077Z,12.50
2023-02-07T12:40:13.060Z,12.50
2023-02-07T12:41:13.018Z,12.30
2023-02-07T12:42:14.161Z,11.40
2023-02-07T12:43:13.337Z,9.60
2023-02-07T12:44:13.292Z,8.60
2023-02-07T12:45:13.194Z,8.80
2023-02-07T12:46:13.320Z,9.30
2023-02-07T12:47:13.154Z,10.50
2023-02-07T12:48:15.613Z,11.40
2023-02-07T12:49:13.497Z,10.30
2023-02-07T12:50:13.352Z,9.20
2023-02-07T12:51:13.557Z,8.50
2023-02-07T12:52:13.501Z,8.20
2023-02-07T12:53:13.559Z,9.10
2023-02-07T12:54:13.460Z,8.90
2023-02-07T12:55:13.378Z,10.00
2023-02-07T12:56:13.290Z,9.70
2023-02-07T12:57:13.274Z,9.90
2023-02-07T12:58:13.194Z,9.30
2023-02-07T12:59:13.146Z,9.70
2023-02-07T13:00:13.332Z,9.30
2023-02-07T13:01:13.342Z,8.80
2023-02-07T13:02:13.301Z,9.40
2023-02-07T13:03:13.482Z,9.80
2023-02-07T13:04:13.819Z,9.50
2023-02-07T13:05:13.861Z,9.60
2023-02-07T13:06:14.142Z,9.10
2023-02-07T13:07:13.343Z,8.30
2023-02-07T13:08:13.519Z,8.90
2023-02-07T13:09:13.655Z,9.40
2023-02-07T13:10:13.783Z,8.60
2023-02-07T13:11:13.877Z,8.30
2023-02-07T13:12:14.197Z,9.00
2023-02-07T13:13:13.556Z,8.60
2023-02-07T13:14:14.032Z,7.70
2023-02-07T13:15:13.277Z,9.00
2023-02-07T13:16:13.254Z,8.00
2023-02-07T13:17:13.559Z,7.60
2023-02-07T13:18:13.777Z,7.10
2023-02-07T13:19:13.992Z,7.10
2023-02-07T13:20:13.462Z,7.10